sensor_id;sensor_type;location;lat;lon;timestamp;temperature;humidity
33815;DHT22;20121;51.910;8.406;2022-10-31T00:02:24;11.70;99.90
33815;DHT22;20121;51.910;8.406;2022-10-31T00:04:50;11.70;99.90
33815;DHT22;20121;51.910;8.406;2022-10-31T00:07:16;11.70;99.90
33815;DHT22;20121;51.910;8.406;2022-10-31T00:09:41;11.40;99.90
33815;DHT22;20121;51.910;8.406;2022-10-31T00:12:07;11.60;99.90
33815;DHT22;20121;51.910;8.406;2022-10-31T00:14:32;11.60;99.90
33815;DHT22;20121;51.910;8.406;2022-10-31T00:16:58;11.60;99.90
33815;DHT22;20121;51.910;8.406;2022-10-31T00:19:24;11.60;99.90
33815;DHT22;20121;51.910;8.406;2022-10-31T00:21:51;11.50;99.90
33815;DHT22;20121;51.910;8.406;2022-10-31T00:24:17;11.50;99.90
33815;DHT22;20121;51.910;8.406;2022-10-31T00:26:43;11.50;99.90
33815;DHT22;20121;51.910;8.406;2022-10-31T00:29:08;11.50;99.90
33815;DHT22;20121;51.910;8.406;2022-10-31T00:31:34;11.40;99.90
33815;DHT22;20121;51.910;8.406;2022-10-31T00:33:59;11.20;99.90
33815;DHT22;20121;51.910;8.406;2022-10-31T00:36:25;11.40;99.90
33815;DHT22;20121;51.910;8.406;2022-10-31T00:38:51;11.30;99.90
33815;DHT22;20121;51.910;8.406;2022-10-31T00:41:17;11.30;99.90
33815;DHT22;20121;51.910;8.406;2022-10-31T00:43:43;11.30;99.90
33815;DHT22;20121;51.910;8.406;2022-10-31T00:46:10;11.30;99.90
33815;DHT22;20121;51.910;8.406;2022-10-31T00:48:35;11.20;99.90
33815;DHT22;20121;51.910;8.406;2022-10-31T00:51:01;11.20;99.90
33815;DHT22;20121;51.910;8.406;2022-10-31T00:53:26;11.20;99.90
33815;DHT22;20121;51.910;8.406;2022-10-31T00:55:52;11.30;99.90
33815;DHT22;20121;51.910;8.406;2022-10-31T00:58:18;11.10;99.90
33815;DHT22;20121;51.910;8.406;2022-10-31T01:00:43;11.10;99.90
33815;DHT22;20121;51.910;8.406;2022-10-31T01:03:09;11.00;99.90
33815;DHT22;20121;51.910;8.406;2022-10-31T01:05:34;11.00;99.90
33815;DHT22;20121;51.910;8.406;2022-10-31T01:08:00;11.00;99.90
33815;DHT22;20121;51.910;8.406;2022-10-31T01:10:26;10.90;99.90
33815;DHT22;20121;51.910;8.406;2022-10-31T01:12:51;10.90;99.90
33815;DHT22;20121;51.910;8.406;2022-10-31T01:15:19;10.80;99.90
33815;DHT22;20121;51.910;8.406;2022-10-31T01:17:46;10.80;99.90
33815;DHT22;20121;51.910;8.406;2022-10-31T01:20:13;10.80;99.90
33815;DHT22;20121;51.910;8.406;2022-10-31T01:22:39;10.80;99.90
33815;DHT22;20121;51.910;8.406;2022-10-31T01:25:05;10.80;99.90
33815;DHT22;20121;51.910;8.406;2022-10-31T01:27:32;10.70;99.90
33815;DHT22;20121;51.910;8.406;2022-10-31T01:29:57;10.70;99.90
33815;DHT22;20121;51.910;8.406;2022-10-31T01:32:23;10.70;99.90
33815;DHT22;20121;51.910;8.406;2022-10-31T01:34:49;10.70;99.90
33815;DHT22;20121;51.910;8.406;2022-10-31T01:37:14;10.70;99.90
33815;DHT22;20121;51.910;8.406;2022-10-31T01:39:40;10.90;99.90
33815;DHT22;20121;51.910;8.406;2022-10-31T01:42:06;10.60;99.90
33815;DHT22;20121;51.910;8.406;2022-10-31T01:47:06;10.60;99.90
33815;DHT22;20121;51.910;8.406;2022-10-31T01:49:40;10.70;99.90
33815;DHT22;20121;51.910;8.406;2022-10-31T01:52:38;10.50;99.90
33815;DHT22;20121;51.910;8.406;2022-10-31T01:55:13;10.50;99.90
33815;DHT22;20121;51.910;8.406;2022-10-31T01:57:44;10.50;99.90
33815;DHT22;20121;51.910;8.406;2022-10-31T02:00:11;10.40;99.90
33815;DHT22;20121;51.910;8.406;2022-10-31T02:02:37;10.40;99.90
33815;DHT22;20121;51.910;8.406;2022-10-31T02:05:06;10.40;99.90
33815;DHT22;20121;51.910;8.406;2022-10-31T02:10:16;10.40;99.90
33815;DHT22;20121;51.910;8.406;2022-10-31T02:12:44;10.40;99.90
33815;DHT22;20121;51.910;8.406;2022-10-31T02:15:10;10.40;99.90
33815;DHT22;20121;51.910;8.406;2022-10-31T02:17:35;10.50;99.90
33815;DHT22;20121;51.910;8.406;2022-10-31T02:20:25;10.40;99.90
33815;DHT22;20121;51.910;8.406;2022-10-31T02:26:17;10.50;99.90
33815;DHT22;20121;51.910;8.406;2022-10-31T02:29:08;10.50;99.90
33815;DHT22;20121;51.910;8.406;2022-10-31T02:34:34;10.50;99.90
33815;DHT22;20121;51.910;8.406;2022-10-31T02:37:14;10.40;99.90
33815;DHT22;20121;51.910;8.406;2022-10-31T02:39:54;10.80;99.90
33815;DHT22;20121;51.910;8.406;2022-10-31T02:42:32;10.50;99.90
33815;DHT22;20121;51.910;8.406;2022-10-31T02:45:30;10.50;99.90
33815;DHT22;20121;51.910;8.406;2022-10-31T02:48:02;10.50;99.90
33815;DHT22;20121;51.910;8.406;2022-10-31T02:50:32;10.60;99.90
33815;DHT22;20121;51.910;8.406;2022-10-31T02:53:00;10.60;99.90
33815;DHT22;20121;51.910;8.406;2022-10-31T02:57:54;10.70;99.90
33815;DHT22;20121;51.910;8.406;2022-10-31T03:06:17;10.80;99.90
33815;DHT22;20121;51.910;8.406;2022-10-31T03:09:20;10.90;99.90
33815;DHT22;20121;51.910;8.406;2022-10-31T03:12:21;10.90;99.90
33815;DHT22;20121;51.910;8.406;2022-10-31T03:17:53;11.00;99.90
33815;DHT22;20121;51.910;8.406;2022-10-31T03:20:24;11.00;99.90
33815;DHT22;20121;51.910;8.406;2022-10-31T03:22:52;11.00;99.90
33815;DHT22;20121;51.910;8.406;2022-10-31T03:25:19;11.00;99.90
33815;DHT22;20121;51.910;8.406;2022-10-31T03:27:46;11.10;99.90
33815;DHT22;20121;51.910;8.406;2022-10-31T03:30:13;11.00;99.90
33815;DHT22;20121;51.910;8.406;2022-10-31T03:32:45;11.00;99.90
33815;DHT22;20121;51.910;8.406;2022-10-31T03:35:13;11.00;99.90
33815;DHT22;20121;51.910;8.406;2022-10-31T03:37:40;11.00;99.90
33815;DHT22;20121;51.910;8.406;2022-10-31T03:40:08;11.00;99.90
33815;DHT22;20121;51.910;8.406;2022-10-31T03:42:40;11.00;99.90
33815;DHT22;20121;51.910;8.406;2022-10-31T03:45:15;10.90;99.90
33815;DHT22;20121;51.910;8.406;2022-10-31T03:47:42;10.90;99.90
33815;DHT22;20121;51.910;8.406;2022-10-31T03:50:10;10.90;99.90
33815;DHT22;20121;51.910;8.406;2022-10-31T03:52:54;10.90;99.90
33815;DHT22;20121;51.910;8.406;2022-10-31T03:55:27;10.80;99.90
33815;DHT22;20121;51.910;8.406;2022-10-31T03:58:00;10.80;99.90
33815;DHT22;20121;51.910;8.406;2022-10-31T04:00:27;10.80;99.90
33815;DHT22;20121;51.910;8.406;2022-10-31T04:03:26;10.70;99.90
33815;DHT22;20121;51.910;8.406;2022-10-31T04:05:55;10.70;99.90
33815;DHT22;20121;51.910;8.406;2022-10-31T04:08:25;10.70;99.90
33815;DHT22;20121;51.910;8.406;2022-10-31T04:10:52;10.60;99.90
33815;DHT22;20121;51.910;8.406;2022-10-31T04:13:24;10.60;99.90
33815;DHT22;20121;51.910;8.406;2022-10-31T04:15:52;10.60;99.90
33815;DHT22;20121;51.910;8.406;2022-10-31T04:18:19;10.70;99.90
33815;DHT22;20121;51.910;8.406;2022-10-31T04:20:47;10.50;99.90
33815;DHT22;20121;51.910;8.406;2022-10-31T04:23:20;10.50;99.90
33815;DHT22;20121;51.910;8.406;2022-10-31T04:25:47;10.40;99.90
33815;DHT22;20121;51.910;8.406;2022-10-31T04:28:13;10.40;99.90
33815;DHT22;20121;51.910;8.406;2022-10-31T04:30:39;10.30;99.90
33815;DHT22;20121;51.910;8.406;2022-10-31T04:33:04;10.30;99.90
33815;DHT22;20121;51.910;8.406;2022-10-31T04:35:30;10.30;99.90
33815;DHT22;20121;51.910;8.406;2022-10-31T04:37:55;10.30;99.90
33815;DHT22;20121;51.910;8.406;2022-10-31T04:40:21;10.20;99.90
33815;DHT22;20121;51.910;8.406;2022-10-31T04:42:46;10.20;99.90
33815;DHT22;20121;51.910;8.406;2022-10-31T04:45:12;10.20;99.90
33815;DHT22;20121;51.910;8.406;2022-10-31T04:47:38;10.20;99.90
33815;DHT22;20121;51.910;8.406;2022-10-31T04:50:04;10.10;99.90
33815;DHT22;20121;51.910;8.406;2022-10-31T04:52:29;10.10;99.90
33815;DHT22;20121;51.910;8.406;2022-10-31T04:54:55;10.10;99.90
33815;DHT22;20121;51.910;8.406;2022-10-31T04:57:20;10.10;99.90
33815;DHT22;20121;51.910;8.406;2022-10-31T04:59:46;10.10;99.90
33815;DHT22;20121;51.910;8.406;2022-10-31T05:02:12;10.10;99.90
33815;DHT22;20121;51.910;8.406;2022-10-31T05:04:37;10.10;99.90
33815;DHT22;20121;51.910;8.406;2022-10-31T05:07:03;10.00;99.90
33815;DHT22;20121;51.910;8.406;2022-10-31T05:09:28;10.00;99.90
33815;DHT22;20121;51.910;8.406;2022-10-31T05:11:54;10.00;99.90
33815;DHT22;20121;51.910;8.406;2022-10-31T05:14:20;10.00;99.90
33815;DHT22;20121;51.910;8.406;2022-10-31T05:16:45;10.00;99.90
33815;DHT22;20121;51.910;8.406;2022-10-31T05:19:11;10.00;99.90
33815;DHT22;20121;51.910;8.406;2022-10-31T05:24:03;10.00;99.90
33815;DHT22;20121;51.910;8.406;2022-10-31T05:26:28;10.00;99.90
33815;DHT22;20121;51.910;8.406;2022-10-31T05:28:54;9.90;99.90
33815;DHT22;20121;51.910;8.406;2022-10-31T05:31:20;9.90;99.90
33815;DHT22;20121;51.910;8.406;2022-10-31T05:33:45;9.90;99.90
33815;DHT22;20121;51.910;8.406;2022-10-31T05:36:11;9.90;99.90
33815;DHT22;20121;51.910;8.406;2022-10-31T05:38:36;9.90;99.90
33815;DHT22;20121;51.910;8.406;2022-10-31T05:41:02;9.90;99.90
33815;DHT22;20121;51.910;8.406;2022-10-31T05:43:28;9.90;99.90
33815;DHT22;20121;51.910;8.406;2022-10-31T05:45:54;9.80;99.90
33815;DHT22;20121;51.910;8.406;2022-10-31T05:48:20;9.80;99.90
33815;DHT22;20121;51.910;8.406;2022-10-31T05:50:48;9.80;99.90
33815;DHT22;20121;51.910;8.406;2022-10-31T05:53:14;9.80;99.90
33815;DHT22;20121;51.910;8.406;2022-10-31T05:55:39;9.70;99.90
33815;DHT22;20121;51.910;8.406;2022-10-31T05:58:09;9.70;99.90
33815;DHT22;20121;51.910;8.406;2022-10-31T06:00:34;9.70;99.90
33815;DHT22;20121;51.910;8.406;2022-10-31T06:03:02;9.70;99.90
33815;DHT22;20121;51.910;8.406;2022-10-31T06:05:28;9.70;99.90
33815;DHT22;20121;51.910;8.406;2022-10-31T06:07:55;9.60;99.90
33815;DHT22;20121;51.910;8.406;2022-10-31T06:10:21;9.70;99.90
33815;DHT22;20121;51.910;8.406;2022-10-31T06:12:47;9.60;99.90
33815;DHT22;20121;51.910;8.406;2022-10-31T06:15:13;9.60;99.90
33815;DHT22;20121;51.910;8.406;2022-10-31T06:17:39;9.70;99.90
33815;DHT22;20121;51.910;8.406;2022-10-31T06:20:06;9.70;99.90
33815;DHT22;20121;51.910;8.406;2022-10-31T06:22:32;9.70;99.90
33815;DHT22;20121;51.910;8.406;2022-10-31T06:24:58;9.70;99.90
33815;DHT22;20121;51.910;8.406;2022-10-31T06:27:24;9.80;99.90
33815;DHT22;20121;51.910;8.406;2022-10-31T06:29:50;9.50;99.90
33815;DHT22;20121;51.910;8.406;2022-10-31T06:32:15;9.70;99.90
33815;DHT22;20121;51.910;8.406;2022-10-31T06:34:42;9.70;99.90
33815;DHT22;20121;51.910;8.406;2022-10-31T06:37:09;9.70;99.90
33815;DHT22;20121;51.910;8.406;2022-10-31T06:39:35;9.90;99.90
33815;DHT22;20121;51.910;8.406;2022-10-31T06:42:01;9.80;99.90
33815;DHT22;20121;51.910;8.406;2022-10-31T06:44:26;9.80;99.90
33815;DHT22;20121;51.910;8.406;2022-10-31T06:46:52;9.80;99.90
33815;DHT22;20121;51.910;8.406;2022-10-31T06:49:18;9.80;99.90
33815;DHT22;20121;51.910;8.406;2022-10-31T06:51:47;9.80;99.90
33815;DHT22;20121;51.910;8.406;2022-10-31T06:54:12;9.80;99.90
33815;DHT22;20121;51.910;8.406;2022-10-31T06:56:38;9.90;99.90
33815;DHT22;20121;51.910;8.406;2022-10-31T06:59:04;9.90;99.90
33815;DHT22;20121;51.910;8.406;2022-10-31T07:01:29;9.90;99.90
33815;DHT22;20121;51.910;8.406;2022-10-31T07:03:55;10.00;99.90
33815;DHT22;20121;51.910;8.406;2022-10-31T07:06:20;10.00;99.90
33815;DHT22;20121;51.910;8.406;2022-10-31T07:08:46;10.10;99.90
33815;DHT22;20121;51.910;8.406;2022-10-31T07:11:11;9.80;99.90
33815;DHT22;20121;51.910;8.406;2022-10-31T07:13:37;9.90;99.90
33815;DHT22;20121;51.910;8.406;2022-10-31T07:16:04;10.20;99.90
33815;DHT22;20121;51.910;8.406;2022-10-31T07:18:32;10.20;99.90
33815;DHT22;20121;51.910;8.406;2022-10-31T07:20:58;10.30;99.90
33815;DHT22;20121;51.910;8.406;2022-10-31T07:23:23;10.30;99.90
33815;DHT22;20121;51.910;8.406;2022-10-31T07:25:55;10.40;99.90
33815;DHT22;20121;51.910;8.406;2022-10-31T07:28:20;10.40;99.90
33815;DHT22;20121;51.910;8.406;2022-10-31T07:30:53;10.50;99.90
33815;DHT22;20121;51.910;8.406;2022-10-31T07:33:19;11.00;99.90
33815;DHT22;20121;51.910;8.406;2022-10-31T07:35:45;10.70;99.90
33815;DHT22;20121;51.910;8.406;2022-10-31T07:38:13;10.80;99.90
33815;DHT22;20121;51.910;8.406;2022-10-31T07:40:40;10.50;99.90
33815;DHT22;20121;51.910;8.406;2022-10-31T07:43:05;11.00;99.90
33815;DHT22;20121;51.910;8.406;2022-10-31T07:45:31;11.10;99.90
33815;DHT22;20121;51.910;8.406;2022-10-31T07:47:57;11.10;99.90
33815;DHT22;20121;51.910;8.406;2022-10-31T07:50:28;11.30;99.90
33815;DHT22;20121;51.910;8.406;2022-10-31T07:53:10;11.40;99.90
33815;DHT22;20121;51.910;8.406;2022-10-31T07:55:36;11.50;99.90
33815;DHT22;20121;51.910;8.406;2022-10-31T07:58:08;11.50;99.90
33815;DHT22;20121;51.910;8.406;2022-10-31T08:00:35;11.70;99.90
33815;DHT22;20121;51.910;8.406;2022-10-31T08:03:09;11.80;99.90
33815;DHT22;20121;51.910;8.406;2022-10-31T08:05:35;11.80;99.90
33815;DHT22;20121;51.910;8.406;2022-10-31T08:08:02;11.90;99.90
33815;DHT22;20121;51.910;8.406;2022-10-31T08:10:28;12.10;99.90
33815;DHT22;20121;51.910;8.406;2022-10-31T08:13:01;12.10;99.90
33815;DHT22;20121;51.910;8.406;2022-10-31T08:15:27;12.20;99.90
33815;DHT22;20121;51.910;8.406;2022-10-31T08:17:53;12.30;99.90
33815;DHT22;20121;51.910;8.406;2022-10-31T08:22:56;12.50;99.90
33815;DHT22;20121;51.910;8.406;2022-10-31T08:25:23;12.60;99.90
33815;DHT22;20121;51.910;8.406;2022-10-31T08:27:53;12.60;99.90
33815;DHT22;20121;51.910;8.406;2022-10-31T08:30:20;12.70;99.90
33815;DHT22;20121;51.910;8.406;2022-10-31T08:32:46;12.70;99.90
33815;DHT22;20121;51.910;8.406;2022-10-31T08:35:12;12.80;99.90
33815;DHT22;20121;51.910;8.406;2022-10-31T08:37:38;12.80;99.90
33815;DHT22;20121;51.910;8.406;2022-10-31T08:40:04;12.90;99.90
33815;DHT22;20121;51.910;8.406;2022-10-31T08:42:30;12.90;99.90
33815;DHT22;20121;51.910;8.406;2022-10-31T08:44:56;12.90;99.90
33815;DHT22;20121;51.910;8.406;2022-10-31T08:47:21;12.90;99.90
33815;DHT22;20121;51.910;8.406;2022-10-31T08:49:47;13.00;99.90
33815;DHT22;20121;51.910;8.406;2022-10-31T08:52:13;13.00;99.90
33815;DHT22;20121;51.910;8.406;2022-10-31T08:54:40;13.00;99.90
33815;DHT22;20121;51.910;8.406;2022-10-31T08:57:05;13.10;99.90
33815;DHT22;20121;51.910;8.406;2022-10-31T08:59:32;13.10;99.90
33815;DHT22;20121;51.910;8.406;2022-10-31T09:01:58;13.20;99.90
33815;DHT22;20121;51.910;8.406;2022-10-31T09:04:23;13.30;99.90
33815;DHT22;20121;51.910;8.406;2022-10-31T09:06:49;13.30;99.90
33815;DHT22;20121;51.910;8.406;2022-10-31T09:09:14;13.40;99.90
33815;DHT22;20121;51.910;8.406;2022-10-31T09:11:40;13.90;99.90
33815;DHT22;20121;51.910;8.406;2022-10-31T09:14:05;13.60;99.90
33815;DHT22;20121;51.910;8.406;2022-10-31T09:16:31;13.60;99.90
33815;DHT22;20121;51.910;8.406;2022-10-31T09:18:57;13.70;99.90
33815;DHT22;20121;51.910;8.406;2022-10-31T09:21:22;13.80;99.90
33815;DHT22;20121;51.910;8.406;2022-10-31T09:23:48;13.80;99.90
33815;DHT22;20121;51.910;8.406;2022-10-31T09:26:14;13.90;99.90
33815;DHT22;20121;51.910;8.406;2022-10-31T09:28:40;14.00;99.90
33815;DHT22;20121;51.910;8.406;2022-10-31T09:31:05;14.00;99.90
33815;DHT22;20121;51.910;8.406;2022-10-31T09:33:31;14.00;99.90
33815;DHT22;20121;51.910;8.406;2022-10-31T09:35:58;14.10;99.90
33815;DHT22;20121;51.910;8.406;2022-10-31T09:38:23;14.10;99.90
33815;DHT22;20121;51.910;8.406;2022-10-31T09:44:28;14.20;99.90
33815;DHT22;20121;51.910;8.406;2022-10-31T09:47:11;14.30;99.90
33815;DHT22;20121;51.910;8.406;2022-10-31T09:49:53;14.50;99.90
33815;DHT22;20121;51.910;8.406;2022-10-31T09:52:30;14.60;99.90
33815;DHT22;20121;51.910;8.406;2022-10-31T09:57:33;14.80;99.90
33815;DHT22;20121;51.910;8.406;2022-10-31T10:00:00;15.00;99.90
33815;DHT22;20121;51.910;8.406;2022-10-31T10:02:36;15.10;99.90
33815;DHT22;20121;51.910;8.406;2022-10-31T10:05:09;15.20;99.90
33815;DHT22;20121;51.910;8.406;2022-10-31T10:08:16;15.30;99.90
33815;DHT22;20121;51.910;8.406;2022-10-31T10:19:59;15.80;99.90
33815;DHT22;20121;51.910;8.406;2022-10-31T10:33:21;16.50;99.90
33815;DHT22;20121;51.910;8.406;2022-10-31T10:35:57;16.60;99.90
33815;DHT22;20121;51.910;8.406;2022-10-31T10:41:16;17.00;99.90
33815;DHT22;20121;51.910;8.406;2022-10-31T10:43:42;17.10;99.90
33815;DHT22;20121;51.910;8.406;2022-10-31T10:46:29;17.20;99.90
33815;DHT22;20121;51.910;8.406;2022-10-31T10:57:21;17.80;99.90
33815;DHT22;20121;51.910;8.406;2022-10-31T10:59:48;17.80;99.90
33815;DHT22;20121;51.910;8.406;2022-10-31T11:02:20;17.90;99.90
33815;DHT22;20121;51.910;8.406;2022-10-31T11:04:55;18.00;99.90
33815;DHT22;20121;51.910;8.406;2022-10-31T11:07:22;18.50;99.90
33815;DHT22;20121;51.910;8.406;2022-10-31T11:09:47;18.20;99.90
33815;DHT22;20121;51.910;8.406;2022-10-31T11:12:30;18.20;99.90
33815;DHT22;20121;51.910;8.406;2022-10-31T11:14:59;18.30;99.90
33815;DHT22;20121;51.910;8.406;2022-10-31T11:17:34;18.40;99.90
33815;DHT22;20121;51.910;8.406;2022-10-31T11:20:31;18.50;99.90
33815;DHT22;20121;51.910;8.406;2022-10-31T11:23:16;18.50;99.90
33815;DHT22;20121;51.910;8.406;2022-10-31T11:25:55;18.10;99.90
33815;DHT22;20121;51.910;8.406;2022-10-31T11:28:22;18.50;99.90
33815;DHT22;20121;51.910;8.406;2022-10-31T11:30:54;18.40;99.90
33815;DHT22;20121;51.910;8.406;2022-10-31T11:35:47;18.30;99.90
33815;DHT22;20121;51.910;8.406;2022-10-31T11:38:21;18.30;99.90
33815;DHT22;20121;51.910;8.406;2022-10-31T11:41:14;18.20;99.90
33815;DHT22;20121;51.910;8.406;2022-10-31T11:43:49;18.20;99.90
33815;DHT22;20121;51.910;8.406;2022-10-31T11:46:34;18.20;99.90
33815;DHT22;20121;51.910;8.406;2022-10-31T11:49:02;18.10;99.90
33815;DHT22;20121;51.910;8.406;2022-10-31T11:51:31;18.10;99.90
33815;DHT22;20121;51.910;8.406;2022-10-31T11:53:59;18.10;99.90
33815;DHT22;20121;51.910;8.406;2022-10-31T11:56:26;18.10;99.90
33815;DHT22;20121;51.910;8.406;2022-10-31T11:58:57;18.20;99.90
33815;DHT22;20121;51.910;8.406;2022-10-31T12:01:32;18.20;99.90
33815;DHT22;20121;51.910;8.406;2022-10-31T12:04:06;18.20;99.90
33815;DHT22;20121;51.910;8.406;2022-10-31T12:06:35;18.20;99.90
33815;DHT22;20121;51.910;8.406;2022-10-31T12:09:02;18.20;99.90
33815;DHT22;20121;51.910;8.406;2022-10-31T12:11:36;18.20;99.90
33815;DHT22;20121;51.910;8.406;2022-10-31T12:14:07;18.30;99.90
33815;DHT22;20121;51.910;8.406;2022-10-31T12:49:57;18.70;99.90
33815;DHT22;20121;51.910;8.406;2022-10-31T12:53:00;18.60;99.90
33815;DHT22;20121;51.910;8.406;2022-10-31T12:58:40;18.60;99.90
33815;DHT22;20121;51.910;8.406;2022-10-31T13:01:21;18.50;99.90
33815;DHT22;20121;51.910;8.406;2022-10-31T13:06:22;18.60;99.90
33815;DHT22;20121;51.910;8.406;2022-10-31T13:08:56;18.60;99.90
33815;DHT22;20121;51.910;8.406;2022-10-31T13:11:54;18.60;99.90
33815;DHT22;20121;51.910;8.406;2022-10-31T13:14:28;18.60;99.90
33815;DHT22;20121;51.910;8.406;2022-10-31T13:16:55;18.60;99.90
33815;DHT22;20121;51.910;8.406;2022-10-31T13:19:30;18.60;99.90
33815;DHT22;20121;51.910;8.406;2022-10-31T13:22:02;18.60;99.90
33815;DHT22;20121;51.910;8.406;2022-10-31T13:25:24;18.70;99.90
33815;DHT22;20121;51.910;8.406;2022-10-31T13:28:02;18.70;99.90
33815;DHT22;20121;51.910;8.406;2022-10-31T13:30:38;18.40;99.90
33815;DHT22;20121;51.910;8.406;2022-10-31T13:36:00;18.60;99.90
33815;DHT22;20121;51.910;8.406;2022-10-31T13:38:41;18.60;99.90
33815;DHT22;20121;51.910;8.406;2022-10-31T13:44:18;18.70;99.90
33815;DHT22;20121;51.910;8.406;2022-10-31T13:46:46;18.70;99.90
33815;DHT22;20121;51.910;8.406;2022-10-31T13:52:13;18.60;99.90
33815;DHT22;20121;51.910;8.406;2022-10-31T13:54:47;18.60;99.90
33815;DHT22;20121;51.910;8.406;2022-10-31T13:57:22;18.60;99.90
33815;DHT22;20121;51.910;8.406;2022-10-31T13:59:53;18.60;99.90
33815;DHT22;20121;51.910;8.406;2022-10-31T14:02:29;18.60;99.90
33815;DHT22;20121;51.910;8.406;2022-10-31T14:05:16;18.60;99.90
33815;DHT22;20121;51.910;8.406;2022-10-31T14:07:45;18.50;99.90
33815;DHT22;20121;51.910;8.406;2022-10-31T14:10:32;18.50;99.90
33815;DHT22;20121;51.910;8.406;2022-10-31T14:13:06;18.50;99.90
33815;DHT22;20121;51.910;8.406;2022-10-31T14:15:32;18.50;99.90
33815;DHT22;20121;51.910;8.406;2022-10-31T14:18:01;18.40;99.90
33815;DHT22;20121;51.910;8.406;2022-10-31T14:20:44;18.30;99.90
33815;DHT22;20121;51.910;8.406;2022-10-31T14:28:53;18.30;99.90
33815;DHT22;20121;51.910;8.406;2022-10-31T14:31:41;18.20;99.90
33815;DHT22;20121;51.910;8.406;2022-10-31T14:34:50;17.90;99.90
33815;DHT22;20121;51.910;8.406;2022-10-31T14:40:24;18.10;99.90
33815;DHT22;20121;51.910;8.406;2022-10-31T14:53:14;17.90;99.90
33815;DHT22;20121;51.910;8.406;2022-10-31T14:55:48;17.90;99.90
33815;DHT22;20121;51.910;8.406;2022-10-31T14:58:40;17.90;99.90
33815;DHT22;20121;51.910;8.406;2022-10-31T15:01:04;18.00;99.90
33815;DHT22;20121;51.910;8.406;2022-10-31T15:03:42;17.80;99.90
33815;DHT22;20121;51.910;8.406;2022-10-31T15:06:12;17.70;99.90
33815;DHT22;20121;51.910;8.406;2022-10-31T15:08:40;17.70;99.90
33815;DHT22;20121;51.910;8.406;2022-10-31T15:11:15;17.60;99.90
33815;DHT22;20121;51.910;8.406;2022-10-31T15:13:46;17.60;99.90
33815;DHT22;20121;51.910;8.406;2022-10-31T15:16:14;17.60;99.90
33815;DHT22;20121;51.910;8.406;2022-10-31T15:19:04;17.60;99.90
33815;DHT22;20121;51.910;8.406;2022-10-31T15:21:31;17.50;99.90
33815;DHT22;20121;51.910;8.406;2022-10-31T15:24:00;17.50;99.90
33815;DHT22;20121;51.910;8.406;2022-10-31T15:26:34;17.40;99.90
33815;DHT22;20121;51.910;8.406;2022-10-31T15:29:05;17.40;99.90
33815;DHT22;20121;51.910;8.406;2022-10-31T15:31:31;17.40;99.90
33815;DHT22;20121;51.910;8.406;2022-10-31T15:34:32;17.40;99.90
33815;DHT22;20121;51.910;8.406;2022-10-31T15:37:00;17.30;99.90
33815;DHT22;20121;51.910;8.406;2022-10-31T15:39:26;17.10;99.90
33815;DHT22;20121;51.910;8.406;2022-10-31T15:41:58;17.30;99.90
33815;DHT22;20121;51.910;8.406;2022-10-31T15:44:33;17.20;99.90
33815;DHT22;20121;51.910;8.406;2022-10-31T15:47:02;17.20;99.90
33815;DHT22;20121;51.910;8.406;2022-10-31T15:49:33;17.20;99.90
33815;DHT22;20121;51.910;8.406;2022-10-31T15:54:45;17.20;99.90
33815;DHT22;20121;51.910;8.406;2022-10-31T15:57:12;17.10;99.90
33815;DHT22;20121;51.910;8.406;2022-10-31T15:59:42;17.10;99.90
33815;DHT22;20121;51.910;8.406;2022-10-31T16:02:11;17.00;99.90
33815;DHT22;20121;51.910;8.406;2022-10-31T16:04:52;16.90;99.90
33815;DHT22;20121;51.910;8.406;2022-10-31T16:07:19;17.00;99.90
33815;DHT22;20121;51.910;8.406;2022-10-31T16:09:58;16.90;99.90
33815;DHT22;20121;51.910;8.406;2022-10-31T16:12:37;16.80;99.90
33815;DHT22;20121;51.910;8.406;2022-10-31T16:15:14;16.80;99.90
33815;DHT22;20121;51.910;8.406;2022-10-31T16:17:43;16.70;99.90
33815;DHT22;20121;51.910;8.406;2022-10-31T16:20:22;16.60;99.90
33815;DHT22;20121;51.910;8.406;2022-10-31T16:22:51;16.60;99.90
33815;DHT22;20121;51.910;8.406;2022-10-31T16:25:28;16.60;99.90
33815;DHT22;20121;51.910;8.406;2022-10-31T16:27:57;16.50;99.90
33815;DHT22;20121;51.910;8.406;2022-10-31T16:30:35;16.50;99.90
33815;DHT22;20121;51.910;8.406;2022-10-31T16:33:19;16.40;99.90
33815;DHT22;20121;51.910;8.406;2022-10-31T16:35:45;16.40;99.90
33815;DHT22;20121;51.910;8.406;2022-10-31T16:38:11;16.40;99.90
33815;DHT22;20121;51.910;8.406;2022-10-31T16:40:38;16.30;99.90
33815;DHT22;20121;51.910;8.406;2022-10-31T16:43:04;16.30;99.90
33815;DHT22;20121;51.910;8.406;2022-10-31T16:45:31;16.30;99.90
33815;DHT22;20121;51.910;8.406;2022-10-31T16:48:05;16.30;99.90
33815;DHT22;20121;51.910;8.406;2022-10-31T16:50:31;16.20;99.90
33815;DHT22;20121;51.910;8.406;2022-10-31T16:52:57;16.20;99.90
33815;DHT22;20121;51.910;8.406;2022-10-31T16:55:22;16.20;99.90
33815;DHT22;20121;51.910;8.406;2022-10-31T16:57:52;16.20;99.90
33815;DHT22;20121;51.910;8.406;2022-10-31T17:00:22;16.20;99.90
33815;DHT22;20121;51.910;8.406;2022-10-31T17:02:53;16.20;99.90
33815;DHT22;20121;51.910;8.406;2022-10-31T17:05:21;16.20;99.90
33815;DHT22;20121;51.910;8.406;2022-10-31T17:07:47;16.20;99.90
33815;DHT22;20121;51.910;8.406;2022-10-31T17:10:14;16.10;99.90
33815;DHT22;20121;51.910;8.406;2022-10-31T17:12:43;16.10;99.90
33815;DHT22;20121;51.910;8.406;2022-10-31T17:15:20;16.10;99.90
33815;DHT22;20121;51.910;8.406;2022-10-31T17:17:47;16.10;99.90
33815;DHT22;20121;51.910;8.406;2022-10-31T17:20:29;16.10;99.90
33815;DHT22;20121;51.910;8.406;2022-10-31T17:22:56;16.00;99.90
33815;DHT22;20121;51.910;8.406;2022-10-31T17:25:25;16.10;99.90
33815;DHT22;20121;51.910;8.406;2022-10-31T17:27:51;16.00;99.90
33815;DHT22;20121;51.910;8.406;2022-10-31T17:30:18;16.00;99.90
33815;DHT22;20121;51.910;8.406;2022-10-31T17:32:45;16.00;99.90
33815;DHT22;20121;51.910;8.406;2022-10-31T17:35:12;16.00;99.90
33815;DHT22;20121;51.910;8.406;2022-10-31T17:37:39;16.00;99.90
33815;DHT22;20121;51.910;8.406;2022-10-31T17:40:08;15.90;99.90
33815;DHT22;20121;51.910;8.406;2022-10-31T17:42:34;15.90;99.90
33815;DHT22;20121;51.910;8.406;2022-10-31T17:44:59;15.90;99.90
33815;DHT22;20121;51.910;8.406;2022-10-31T17:47:25;15.80;99.90
33815;DHT22;20121;51.910;8.406;2022-10-31T17:49:50;15.80;99.90
33815;DHT22;20121;51.910;8.406;2022-10-31T17:52:18;15.90;99.90
33815;DHT22;20121;51.910;8.406;2022-10-31T17:54:44;15.80;99.90
33815;DHT22;20121;51.910;8.406;2022-10-31T17:57:09;15.80;99.90
33815;DHT22;20121;51.910;8.406;2022-10-31T17:59:35;15.70;99.90
33815;DHT22;20121;51.910;8.406;2022-10-31T18:02:01;15.80;99.90
33815;DHT22;20121;51.910;8.406;2022-10-31T18:04:33;15.80;99.90
33815;DHT22;20121;51.910;8.406;2022-10-31T18:06:59;15.70;99.90
33815;DHT22;20121;51.910;8.406;2022-10-31T18:09:25;15.70;99.90